Time;durP1;ratioP1;P1;durP2;ratioP2;P2;SDS_P1;SDS_P2;PMS_P1;PMS_P2;Temp;Humidity;BMP_temperature;BMP_pressure;BME280_temperature;BME280_humidity;BME280_pressure;Samples;Min_cycle;Max_cycle;Signal;HPM_P1;HPM_P2
2021/11/02 00:01:08;;;;;;;20.77;14.43;;;23.50;37.50;;;;;;4778669;29;20079;-55
2021/11/02 00:03:36;;;;;;;19.73;14.82;;;23.50;37.60;;;;;;4780641;29;20067;-54
2021/11/02 00:06:03;;;;;;;18.10;14.07;;;23.50;37.60;;;;;;4780311;29;20051;-55
2021/11/02 00:08:31;;;;;;;17.38;13.50;;;23.50;37.60;;;;;;4775714;29;20091;-53
2021/11/02 00:10:58;;;;;;;19.13;14.73;;;23.50;37.60;;;;;;4777094;30;20526;-54
2021/11/02 00:13:29;;;;;;;21.63;14.60;;;23.50;37.60;;;;;;4781014;29;20100;-54
2021/11/02 00:16:00;;;;;;;18.45;14.23;;;23.40;37.60;;;;;;4780067;29;20093;-54
2021/11/02 00:18:28;;;;;;;17.83;14.00;;;23.40;37.60;;;;;;4774107;29;20063;-55
2021/11/02 00:21:00;;;;;;;19.33;14.93;;;23.40;37.60;;;;;;4778264;29;20128;-55
2021/11/02 00:23:35;;;;;;;17.70;14.07;;;23.40;37.60;;;;;;4780261;29;20055;-53
2021/11/02 00:26:08;;;;;;;18.23;14.15;;;23.40;37.60;;;;;;4780465;29;20066;-53
2021/11/02 00:28:36;;;;;;;20.75;14.45;;;23.40;37.60;;;;;;4775914;29;20055;-53
2021/11/02 00:31:04;;;;;;;21.50;15.50;;;23.40;37.60;;;;;;4777980;29;20082;-54
2021/11/02 00:33:32;;;;;;;19.08;13.80;;;23.40;37.60;;;;;;4780479;29;20247;-54
2021/11/02 00:35:59;;;;;;;19.30;14.32;;;23.40;37.60;;;;;;4780018;29;20147;-54
2021/11/02 00:38:26;;;;;;;18.08;14.27;;;23.40;38.20;;;;;;4775034;29;20083;-55
2021/11/02 00:40:54;;;;;;;17.10;13.93;;;23.40;37.60;;;;;;4775665;30;20423;-54
2021/11/02 00:43:24;;;;;;;20.55;15.30;;;23.40;37.60;;;;;;4780597;29;20146;-53
2021/11/02 00:45:51;;;;;;;18.83;14.23;;;23.40;37.70;;;;;;4779716;29;20082;-54
2021/11/02 00:48:27;;;;;;;19.05;14.30;;;23.40;37.70;;;;;;4776231;29;20150;-55
2021/11/02 00:50:55;;;;;;;17.73;13.32;;;23.40;37.70;;;;;;4777671;29;20086;-50
2021/11/02 00:53:23;;;;;;;19.50;14.38;;;23.40;37.70;;;;;;4779625;29;20286;-54
2021/11/02 00:55:50;;;;;;;17.42;13.52;;;23.40;37.70;;;;;;4780897;29;20434;-54
2021/11/02 00:58:20;;;;;;;18.17;14.40;;;23.40;37.70;;;;;;4780199;29;20147;-53
2021/11/02 01:00:48;;;;;;;18.80;14.63;;;23.40;37.70;;;;;;4781714;29;20063;-51
2021/11/02 01:03:15;;;;;;;18.35;14.13;;;23.40;37.70;;;;;;4783173;29;20324;-52
2021/11/02 01:05:42;;;;;;;17.17;14.48;;;23.40;37.70;;;;;;4783108;29;20132;-55
2021/11/02 01:08:09;;;;;;;17.48;13.68;;;23.40;37.70;;;;;;4781126;29;20146;-54
2021/11/02 01:10:36;;;;;;;17.83;13.82;;;23.40;37.70;;;;;;4778575;29;20132;-52
2021/11/02 01:13:04;;;;;;;15.52;12.85;;;23.40;37.70;;;;;;4782980;29;20510;-55
2021/11/02 01:15:31;;;;;;;17.52;13.68;;;23.40;37.70;;;;;;4783376;29;20094;-54
2021/11/02 01:17:59;;;;;;;17.30;13.30;;;23.40;37.70;;;;;;4779610;29;20142;-52
2021/11/02 01:20:27;;;;;;;17.73;13.15;;;23.40;37.70;;;;;;4780134;29;20572;-52
2021/11/02 01:22:54;;;;;;;19.38;14.00;;;23.40;37.80;;;;;;4782399;29;20055;-50
2021/11/02 01:25:22;;;;;;;16.63;13.00;;;23.40;37.70;;;;;;4783637;29;20079;-54
2021/11/02 01:27:50;;;;;;;18.30;14.13;;;23.50;37.70;;;;;;4779533;29;20509;-52
2021/11/02 01:30:18;;;;;;;18.33;13.35;;;23.50;37.70;;;;;;4778769;29;20104;-52
2021/11/02 01:32:45;;;;;;;17.42;13.15;;;23.50;37.60;;;;;;4782609;29;20086;-52
2021/11/02 01:35:13;;;;;;;17.67;13.75;;;23.50;37.60;;;;;;4782647;29;20198;-52
2021/11/02 01:37:41;;;;;;;18.40;13.43;;;23.50;37.50;;;;;;4781648;29;20098;-51
2021/11/02 01:40:11;;;;;;;20.15;14.27;;;23.50;37.50;;;;;;4777342;29;20059;-54
2021/11/02 01:42:39;;;;;;;17.05;14.23;;;23.50;37.50;;;;;;4782269;29;20083;-53
2021/11/02 01:45:09;;;;;;;17.92;13.40;;;23.50;38.10;;;;;;4783229;29;20091;-53
2021/11/02 01:47:43;;;;;;;17.13;13.55;;;23.60;37.50;;;;;;4780124;29;20498;-54
2021/11/02 01:50:13;;;;;;;15.70;12.57;;;23.50;37.50;;;;;;4779397;29;20549;-51
2021/11/02 01:52:41;;;;;;;17.55;12.85;;;23.60;37.50;;;;;;4781562;29;20682;-51
2021/11/02 01:55:11;;;;;;;17.10;13.15;;;23.60;37.40;;;;;;4783248;29;20458;-53
2021/11/02 01:57:41;;;;;;;16.55;13.13;;;23.60;37.40;;;;;;4781266;29;20107;-55
2021/11/02 02:00:12;;;;;;;17.15;12.93;;;23.60;37.40;;;;;;4772332;30;20468;-53
2021/11/02 02:03:08;;;;;;;15.02;12.60;;;23.60;38.00;;;;;;4764406;30;20580;-54
2021/11/02 02:06:10;;;;;;;16.08;12.98;;;23.60;37.40;;;;;;4764522;30;20162;-55
2021/11/02 02:09:04;;;;;;;17.30;12.68;;;23.60;37.40;;;;;;4766193;30;20464;-55
2021/11/02 02:12:02;;;;;;;17.02;12.52;;;23.60;37.40;;;;;;4781960;29;20267;-54
2021/11/02 02:14:45;;;;;;;17.33;13.23;;;23.60;37.40;;;;;;4782211;29;20547;-53
2021/11/02 02:17:17;;;;;;;16.08;12.50;;;23.60;37.40;;;;;;4779710;29;20082;-55
2021/11/02 02:19:58;;;;;;;14.20;12.18;;;23.60;37.40;;;;;;4774760;29;20142;-55
2021/11/02 02:22:57;;;;;;;15.68;12.75;;;23.60;37.40;;;;;;4781767;29;20047;-54
2021/11/02 02:25:45;;;;;;;15.50;12.38;;;23.60;37.40;;;;;;4782388;29;20219;-55
2021/11/02 02:28:28;;;;;;;16.38;12.88;;;23.60;37.40;;;;;;4778404;29;20293;-54
2021/11/02 02:31:05;;;;;;;16.80;12.52;;;23.60;37.40;;;;;;4780234;29;20086;-55
2021/11/02 02:33:41;;;;;;;17.25;13.13;;;23.60;37.40;;;;;;4781524;29;20077;-53
2021/11/02 02:36:10;;;;;;;17.08;13.38;;;23.60;37.40;;;;;;4782433;29;20134;-54
2021/11/02 02:38:40;;;;;;;16.30;13.07;;;23.60;37.40;;;;;;4776820;29;20068;-54
2021/11/02 02:41:09;;;;;;;15.75;12.70;;;23.60;37.40;;;;;;4778866;29;20080;-56
2021/11/02 02:43:40;;;;;;;15.73;12.63;;;23.60;37.40;;;;;;4781266;29;20051;-53
2021/11/02 02:46:09;;;;;;;17.08;13.15;;;23.60;37.40;;;;;;4781674;29;20055;-54
2021/11/02 02:48:39;;;;;;;16.23;12.35;;;23.50;37.40;;;;;;4776785;29;20484;-54
2021/11/02 02:51:08;;;;;;;18.40;12.97;;;23.50;37.40;;;;;;4779994;29;20139;-54
2021/11/02 02:53:36;;;;;;;17.70;13.15;;;23.60;37.50;;;;;;4780868;29;20720;-54
2021/11/02 02:56:08;;;;;;;15.50;12.40;;;23.60;37.50;;;;;;4782128;29;20413;-53
2021/11/02 02:58:39;;;;;;;12.90;11.27;;;23.60;37.50;;;;;;4775517;29;20087;-53
2021/11/02 03:01:12;;;;;;;15.63;12.18;;;23.50;37.50;;;;;;4779581;29;20407;-54
2021/11/02 03:03:52;;;;;;;18.35;13.77;;;23.50;37.50;;;;;;4780993;29;20230;-55
2021/11/02 03:06:23;;;;;;;14.02;11.60;;;23.50;37.50;;;;;;4780383;30;20082;-53
2021/11/02 03:08:52;;;;;;;15.77;12.88;;;23.50;37.50;;;;;;4776896;29;20138;-53
2021/11/02 03:11:26;;;;;;;14.32;12.05;;;23.50;37.50;;;;;;4780390;29;20742;-54
2021/11/02 03:13:56;;;;;;;17.40;12.70;;;23.50;37.50;;;;;;4779378;30;20359;-54
2021/11/02 03:16:52;;;;;;;15.35;11.95;;;23.60;37.50;;;;;;4781194;29;20047;-54
2021/11/02 03:45:14;;;;;;;13.67;11.47;;;23.50;37.50;;;;;;4780422;29;20096;-51
2021/11/02 03:48:15;;;;;;;13.05;11.48;;;23.50;37.50;;;;;;4779356;29;20243;-54
2021/11/02 03:50:57;;;;;;;;;;;23.50;37.50;;;;;;4777266;29;20116;-55
2021/11/02 03:59:26;;;;;;;15.50;11.70;;;23.50;37.50;;;;;;4774821;29;20355;-53
2021/11/02 04:24:37;;;;;;;13.63;11.07;;;23.50;37.50;;;;;;4780381;29;20099;-53
2021/11/02 04:30:28;;;;;;;14.63;11.30;;;23.50;37.50;;;;;;4771039;29;20142;-51
2021/11/02 04:33:15;;;;;;;14.50;11.30;;;23.50;37.50;;;;;;4781055;29;20136;-51
2021/11/02 04:36:18;;;;;;;12.85;10.77;;;23.50;37.50;;;;;;4780672;30;20109;-53
2021/11/02 04:42:31;;;;;;;14.40;11.23;;;23.50;37.60;;;;;;4780203;29;20075;-52
2021/11/02 04:47:01;;;;;;;12.40;10.50;;;23.50;37.60;;;;;;4782880;29;20478;-52
2021/11/02 04:58:25;;;;;;;12.82;10.77;;;23.50;37.60;;;;;;4780193;29;20063;-53
2021/11/02 05:09:16;;;;;;;16.17;11.98;;;23.50;37.60;;;;;;4778064;29;20059;-55
2021/11/02 05:54:12;;;;;;;12.98;10.68;;;23.40;37.70;;;;;;4774303;30;20145;-52
2021/11/02 05:56:45;;;;;;;13.63;9.60;;;23.40;37.70;;;;;;4778552;29;20563;-54
2021/11/02 05:59:31;;;;;;;14.50;10.80;;;23.50;37.70;;;;;;4772467;29;20051;-55
2021/11/02 06:02:17;;;;;;;13.73;10.00;;;23.50;37.70;;;;;;4781607;29;20557;-54
2021/11/02 06:10:53;;;;;;;13.77;10.98;;;23.50;37.80;;;;;;4775525;29;20471;-55
2021/11/02 06:27:53;;;;;;;11.25;9.43;;;23.60;38.40;;;;;;4771184;29;20060;-58
2021/11/02 06:30:38;;;;;;;13.35;9.57;;;23.60;38.80;;;;;;4768474;29;20509;-58
2021/11/02 06:33:13;;;;;;;12.38;9.52;;;23.70;38.30;;;;;;4776654;29;20143;-57
2021/11/02 06:36:11;;;;;;;9.82;8.82;;;23.80;38.20;;;;;;4773985;29;20090;-57
2021/11/02 06:48:03;;;;;;;10.65;8.60;;;24.10;38.10;;;;;;4776381;29;20130;-56
2021/11/02 07:00:23;;;;;;;12.70;8.23;;;24.40;39.40;;;;;;4766542;29;20070;-58
2021/11/02 07:17:35;;;;;;;10.35;8.32;;;24.90;38.70;;;;;;4771005;30;20542;-59
2021/11/02 07:23:15;;;;;;;10.10;8.32;;;25.00;38.90;;;;;;4774212;29;20396;-60
2021/11/02 07:25:56;;;;;;;10.55;7.38;;;25.10;38.80;;;;;;4774856;29;20063;-59
2021/11/02 07:28:56;;;;;;;8.52;7.65;;;25.10;38.70;;;;;;4767379;29;20051;-59
2021/11/02 08:46:12;;;;;;;11.73;5.93;;;25.30;38.80;;;;;;4772923;30;20162;-58
2021/11/02 08:48:40;;;;;;;7.78;6.95;;;25.30;39.00;;;;;;4766835;29;20056;-58
2021/11/02 08:51:07;;;;;;;8.10;5.93;;;25.30;38.90;;;;;;4770597;29;20478;-59
2021/11/02 08:53:35;;;;;;;7.60;6.80;;;25.30;38.80;;;;;;4775397;29;20501;-58
2021/11/02 08:56:08;;;;;;;7.65;6.57;;;25.30;38.80;;;;;;4773885;30;20058;-58
2021/11/02 08:58:35;;;;;;;9.30;6.35;;;25.30;38.70;;;;;;4786516;29;20195;-58
2021/11/02 09:01:03;;;;;;;9.40;5.85;;;25.40;38.90;;;;;;4766687;29;20094;-57
2021/11/02 09:03:37;;;;;;;6.47;5.65;;;25.40;38.80;;;;;;4771668;30;20159;-58
2021/11/02 09:06:08;;;;;;;6.63;6.00;;;25.40;38.70;;;;;;4775187;30;20070;-57
2021/11/02 09:08:45;;;;;;;6.32;5.70;;;25.40;38.60;;;;;;4770679;29;20059;-60
2021/11/02 09:11:15;;;;;;;7.38;5.35;;;25.40;38.60;;;;;;4769199;29;20349;-59
2021/11/02 09:13:46;;;;;;;;;;;25.40;38.60;;;;;;4775337;29;20120;-58
2021/11/02 09:16:16;;;;;;;6.72;5.80;;;25.40;38.50;;;;;;4770750;29;20392;-59
2021/11/02 09:18:47;;;;;;;5.10;4.60;;;25.40;38.40;;;;;;4768147;29;20125;-58
2021/11/02 09:21:16;;;;;;;7.75;5.18;;;25.40;38.40;;;;;;4771780;29;20061;-60
2021/11/02 09:23:45;;;;;;;5.22;4.65;;;25.40;38.40;;;;;;4776669;30;20051;-60
2021/11/02 09:26:15;;;;;;;4.85;4.40;;;25.40;38.50;;;;;;4773247;29;20403;-59
2021/11/02 09:28:43;;;;;;;;;;;25.40;38.40;;;;;;4760307;29;20503;-60
2021/11/02 09:31:12;;;;;;;7.18;4.80;;;25.40;38.40;;;;;;4770255;29;19959;-60
2021/11/02 09:33:39;;;;;;;7.15;4.63;;;25.40;38.40;;;;;;4776006;29;20059;-60
2021/11/02 09:36:08;;;;;;;11.38;4.97;;;25.40;38.90;;;;;;4777724;29;20138;-58
2021/11/02 09:38:44;;;;;;;4.93;4.15;;;25.40;38.40;;;;;;4770109;29;20051;-57
2021/11/02 09:41:54;;;;;;;5.45;4.60;;;25.40;38.40;;;;;;4767899;29;20116;-60
2021/11/02 09:44:49;;;;;;;7.03;4.93;;;25.40;38.40;;;;;;4775391;30;20522;-58
2021/11/02 09:47:48;;;;;;;4.70;4.28;;;25.40;38.50;;;;;;4776111;30;20051;-59
2021/11/02 09:50:55;;;;;;;4.55;4.15;;;25.40;38.40;;;;;;4762246;29;20078;-60
2021/11/02 09:53:55;;;;;;;4.28;3.92;;;25.40;39.10;;;;;;4773809;29;20598;-58
2021/11/02 09:56:57;;;;;;;4.32;3.90;;;25.30;38.50;;;;;;4773319;29;20172;-58
2021/11/02 10:00:04;;;;;;;4.75;4.28;;;25.40;38.60;;;;;;4763912;29;20471;-58
2021/11/02 10:03:03;;;;;;;4.60;4.20;;;25.40;38.60;;;;;;4774176;29;20104;-58
2021/11/02 10:06:05;;;;;;;8.70;4.75;;;25.40;38.60;;;;;;4785058;29;20055;-58
2021/11/02 10:08:49;;;;;;;6.25;4.40;;;25.40;38.60;;;;;;4769192;29;20070;-58
2021/11/02 10:11:43;;;;;;;4.35;4.00;;;25.40;38.70;;;;;;4767750;29;20052;-58
2021/11/02 10:14:50;;;;;;;7.13;4.65;;;25.40;38.60;;;;;;4776653;29;20133;-57
2021/11/02 10:17:54;;;;;;;4.72;4.32;;;25.40;38.50;;;;;;4774384;29;20598;-57
2021/11/02 10:21:01;;;;;;;7.03;4.43;;;25.40;38.50;;;;;;4766860;29;20762;-58
2021/11/02 10:24:03;;;;;;;4.55;4.15;;;25.40;38.50;;;;;;4776043;29;20055;-56
2021/11/02 10:27:09;;;;;;;4.18;3.83;;;25.40;38.40;;;;;;4775363;29;20055;-57
2021/11/02 10:30:19;;;;;;;4.38;3.97;;;25.40;38.40;;;;;;4764632;29;20146;-58
2021/11/02 10:32:48;;;;;;;5.90;4.13;;;25.40;38.40;;;;;;4772913;30;20098;-58
2021/11/02 10:35:26;;;;;;;4.10;3.80;;;25.40;38.50;;;;;;4773862;29;20047;-56
2021/11/02 10:38:02;;;;;;;4.85;4.22;;;25.40;38.60;;;;;;4771398;29;20075;-57
2021/11/02 10:40:51;;;;;;;3.90;3.60;;;25.40;38.70;;;;;;4762695;29;20087;-58
2021/11/02 10:43:51;;;;;;;5.65;4.22;;;25.40;38.70;;;;;;4771998;29;20052;-58
2021/11/02 10:46:35;;;;;;;6.55;4.28;;;25.40;39.20;;;;;;4771007;29;20055;-57
2021/11/02 10:49:34;;;;;;;5.20;3.55;;;25.40;39.00;;;;;;4758661;29;20055;-58
2021/11/02 10:52:05;;;;;;;4.22;3.78;;;25.40;39.00;;;;;;4770356;29;20058;-57
2021/11/02 10:55:04;;;;;;;7.57;3.88;;;25.40;39.00;;;;;;4772695;29;20533;-58
2021/11/02 10:58:00;;;;;;;3.65;3.25;;;25.30;39.00;;;;;;4775474;29;20055;-58
2021/11/02 11:00:29;;;;;;;5.43;3.78;;;25.30;39.00;;;;;;4761156;29;20059;-57
2021/11/02 11:02:56;;;;;;;3.55;3.25;;;25.30;39.00;;;;;;4773314;30;20143;-54
2021/11/02 11:05:27;;;;;;;6.13;3.80;;;25.30;39.00;;;;;;4775581;30;20138;-57
2021/11/02 11:07:59;;;;;;;3.78;3.17;;;25.30;39.00;;;;;;4782380;29;20805;-56
2021/11/02 11:10:28;;;;;;;5.60;3.30;;;25.30;39.00;;;;;;4763288;29;20051;-56
2021/11/02 11:12:59;;;;;;;4.43;3.47;;;25.30;38.90;;;;;;4775013;29;20065;-56
2021/11/02 11:15:27;;;;;;;3.60;3.00;;;25.30;38.90;;;;;;4773756;30;20047;-55
2021/11/02 11:18:01;;;;;;;3.53;3.10;;;25.30;38.90;;;;;;4769408;29;20171;-57
2021/11/02 11:20:30;;;;;;;3.05;2.85;;;25.30;38.90;;;;;;4766337;29;20055;-57
2021/11/02 11:22:59;;;;;;;3.13;2.92;;;25.30;38.80;;;;;;4772736;29;20082;-56
2021/11/02 11:25:51;;;;;;;2.72;2.33;;;25.30;38.80;;;;;;4769012;29;20486;-58
2021/11/02 11:28:20;;;;;;;2.65;2.20;;;25.40;38.60;;;;;;4764456;29;20075;-58
2021/11/02 11:30:48;;;;;;;3.97;2.85;;;25.40;38.50;;;;;;4765304;30;20157;-57
2021/11/02 11:33:19;;;;;;;2.95;2.75;;;25.40;38.50;;;;;;4771502;30;20054;-56
2021/11/02 11:35:49;;;;;;;2.60;2.40;;;25.40;38.70;;;;;;4771176;30;20055;-53
2021/11/02 11:38:18;;;;;;;4.57;2.58;;;25.40;38.80;;;;;;4762550;29;20055;-58
2021/11/02 11:40:45;;;;;;;3.42;2.30;;;25.40;38.90;;;;;;4763562;29;20092;-55
2021/11/02 11:43:14;;;;;;;2.28;2.10;;;25.30;39.00;;;;;;4774349;30;20086;-57
2021/11/02 11:45:52;;;;;;;2.40;2.20;;;25.40;39.10;;;;;;4773122;29;20828;-56
2021/11/02 11:48:26;;;;;;;2.45;2.20;;;25.40;39.20;;;;;;4771967;29;20171;-58
2021/11/02 11:50:57;;;;;;;2.65;2.05;;;25.40;39.20;;;;;;4771796;29;20052;-57
2021/11/02 11:53:25;;;;;;;;;;;25.50;39.10;;;;;;4774759;29;20055;-58
2021/11/02 11:56:07;;;;;;;2.15;1.73;;;25.50;39.00;;;;;;4774394;29;20024;-58
2021/11/02 11:58:45;;;;;;;1.80;1.70;;;25.50;38.90;;;;;;4765982;29;20138;-58
2021/11/02 12:01:38;;;;;;;2.13;1.77;;;25.50;38.90;;;;;;4772238;30;20512;-58
2021/11/02 12:04:21;;;;;;;1.63;1.52;;;25.50;38.90;;;;;;4775052;29;20079;-58
2021/11/02 12:07:13;;;;;;;1.45;1.35;;;25.50;38.80;;;;;;4769931;30;20498;-58
2021/11/02 12:09:43;;;;;;;1.63;1.52;;;25.60;38.90;;;;;;4759238;29;20091;-58
2021/11/02 12:12:11;;;;;;;3.13;1.88;;;25.50;38.90;;;;;;4772384;29;20070;-58
2021/11/02 12:14:45;;;;;;;3.40;1.75;;;25.60;39.00;;;;;;4769698;29;20513;-57
2021/11/02 12:17:16;;;;;;;2.67;1.23;;;25.50;38.80;;;;;;4769220;30;20059;-58
2021/11/02 12:20:02;;;;;;;2.22;1.52;;;25.60;38.80;;;;;;4758397;29;20059;-58
2021/11/02 12:22:44;;;;;;;1.52;1.30;;;25.60;38.70;;;;;;4772116;29;20407;-58
2021/11/02 12:25:18;;;;;;;1.52;1.13;;;25.60;38.80;;;;;;4772696;29;20508;-58
2021/11/02 12:27:46;;;;;;;4.05;1.30;;;25.70;38.80;;;;;;4769837;29;20060;-56
2021/11/02 12:30:16;;;;;;;4.25;1.45;;;25.70;38.60;;;;;;4764981;30;20165;-58
2021/11/02 12:32:46;;;;;;;1.20;1.10;;;25.70;38.40;;;;;;4772920;30;20055;-59
2021/11/02 12:35:22;;;;;;;1.05;1.05;;;25.80;38.40;;;;;;4772766;29;20056;-58
2021/11/02 12:37:56;;;;;;;1.38;0.90;;;25.80;38.30;;;;;;4766493;29;20104;-53
2021/11/02 12:40:32;;;;;;;3.00;0.70;;;25.80;38.20;;;;;;4763588;29;20486;-58
2021/11/02 12:43:24;;;;;;;0.95;0.80;;;25.80;35.50;;;;;;4771400;30;20059;-55
2021/11/02 12:45:53;;;;;;;1.30;0.88;;;25.60;36.40;;;;;;4774361;29;20387;-57
2021/11/02 12:48:21;;;;;;;1.55;1.15;;;25.60;36.80;;;;;;4767739;29;20066;-58
2021/11/02 12:51:14;;;;;;;0.65;0.60;;;25.60;37.20;;;;;;4770315;29;21791;-57
2021/11/02 12:53:46;;;;;;;2.33;0.77;;;25.60;37.60;;;;;;4774979;29;21679;-55
2021/11/02 12:56:19;;;;;;;0.70;0.60;;;25.60;37.80;;;;;;4780937;29;20441;-56
2021/11/02 12:58:59;;;;;;;1.17;0.77;;;25.70;37.90;;;;;;4768646;29;20063;-57
2021/11/02 13:01:34;;;;;;;0.70;0.70;;;25.70;37.90;;;;;;4774046;29;20047;-57
2021/11/02 13:04:09;;;;;;;4.18;0.82;;;25.80;37.90;;;;;;4777153;29;20066;-55
2021/11/02 13:06:42;;;;;;;0.60;0.60;;;25.80;37.90;;;;;;4775768;29;20112;-54
2021/11/02 13:09:21;;;;;;;3.20;1.05;;;25.80;37.80;;;;;;4766313;29;20092;-55
2021/11/02 13:12:05;;;;;;;0.85;0.77;;;25.80;37.80;;;;;;4777278;30;20498;-54
2021/11/02 13:14:44;;;;;;;0.70;0.60;;;25.90;37.80;;;;;;4779066;30;20051;-58
2021/11/02 13:17:17;;;;;;;0.60;0.60;;;25.90;37.70;;;;;;4775928;30;20136;-55
2021/11/02 13:19:49;;;;;;;0.85;0.70;;;25.90;37.70;;;;;;4761777;30;20105;-52
2021/11/02 13:22:22;;;;;;;0.68;0.68;;;25.90;38.00;;;;;;4777189;30;20522;-56
2021/11/02 13:25:11;;;;;;;1.27;0.63;;;25.90;37.70;;;;;;4778485;30;20570;-54
2021/11/02 13:27:43;;;;;;;29.33;1.08;;;25.90;37.40;;;;;;4775393;29;20055;-59
2021/11/02 13:30:35;;;;;;;0.60;0.60;;;25.90;37.40;;;;;;4762623;30;20104;-55
2021/11/02 13:33:20;;;;;;;1.30;0.52;;;25.90;37.60;;;;;;4776518;30;20055;-55
2021/11/02 13:35:59;;;;;;;3.95;1.20;;;25.90;37.60;;;;;;4769644;29;20104;-58
2021/11/02 13:38:36;;;;;;;1.53;1.10;;;25.90;37.60;;;;;;4769875;29;20056;-56
2021/11/02 13:41:09;;;;;;;0.52;0.52;;;25.90;37.70;;;;;;4771962;30;20043;-52
2021/11/02 13:43:42;;;;;;;0.85;0.60;;;25.90;37.60;;;;;;4776064;29;20091;-57
2021/11/02 13:46:11;;;;;;;0.65;0.65;;;25.90;37.60;;;;;;4778021;29;20472;-59
2021/11/02 13:48:41;;;;;;;0.60;0.60;;;26.00;37.80;;;;;;4766552;29;20051;-57
2021/11/02 13:51:11;;;;;;;0.83;0.60;;;25.90;37.80;;;;;;4761574;30;20070;-59
2021/11/02 13:53:39;;;;;;;1.52;0.70;;;26.00;37.80;;;;;;4760334;29;20261;-59
2021/11/02 13:56:10;;;;;;;2.45;0.95;;;26.00;37.80;;;;;;4755769;30;20091;-58
2021/11/02 13:58:38;;;;;;;0.47;0.43;;;26.00;37.70;;;;;;4747979;29;20059;-59
2021/11/02 14:01:12;;;;;;;2.13;0.52;;;26.00;37.80;;;;;;4751965;29;20062;-58
2021/11/02 14:03:50;;;;;;;0.50;0.50;;;26.00;37.80;;;;;;4761965;29;20417;-57
2021/11/02 14:06:21;;;;;;;0.55;0.55;;;26.00;37.70;;;;;;4758097;29;20150;-58
2021/11/02 14:08:49;;;;;;;0.60;0.32;;;26.00;37.80;;;;;;4747788;29;20079;-58
2021/11/02 14:11:22;;;;;;;1.00;0.65;;;26.00;37.70;;;;;;4753306;29;20575;-56
2021/11/02 14:13:50;;;;;;;0.60;0.60;;;26.10;37.70;;;;;;4750332;29;20078;-56
2021/11/02 14:16:29;;;;;;;0.65;0.50;;;26.00;37.70;;;;;;4754136;29;20082;-56
2021/11/02 14:18:58;;;;;;;0.63;0.60;;;26.10;37.70;;;;;;4750641;29;20059;-56
2021/11/02 14:21:48;;;;;;;1.15;0.77;;;26.10;37.60;;;;;;4756496;29;20051;-57
2021/11/02 14:24:45;;;;;;;1.10;1.00;;;26.10;37.50;;;;;;4752759;29;20468;-55
2021/11/02 14:27:21;;;;;;;3.35;0.93;;;26.10;37.40;;;;;;4756567;29;20056;-57
2021/11/02 14:29:57;;;;;;;0.90;0.70;;;26.10;37.30;;;;;;4743698;29;20406;-57
2021/11/02 14:32:46;;;;;;;0.63;0.60;;;26.10;37.30;;;;;;4759179;29;20108;-57
2021/11/02 14:35:45;;;;;;;2.00;0.52;;;26.10;37.20;;;;;;4758541;29;20116;-56
2021/11/02 14:38:18;;;;;;;0.50;0.50;;;26.10;37.20;;;;;;4750464;29;20059;-58
2021/11/02 14:41:32;;;;;;;1.73;0.73;;;26.10;37.20;;;;;;4751189;29;20130;-56
2021/11/02 14:44:25;;;;;;;0.70;0.70;;;26.10;37.20;;;;;;4757522;29;20661;-58
2021/11/02 14:47:00;;;;;;;0.80;0.77;;;26.10;37.40;;;;;;4757231;29;20055;-59
2021/11/02 14:49:41;;;;;;;2.00;1.20;;;26.10;37.60;;;;;;4747155;29;20105;-58
2021/11/02 14:52:10;;;;;;;1.27;0.77;;;26.20;37.80;;;;;;4753357;30;20590;-58
2021/11/02 14:54:43;;;;;;;0.82;0.70;;;26.10;37.70;;;;;;4753535;29;20063;-59
2021/11/02 14:57:38;;;;;;;3.15;1.25;;;26.10;37.80;;;;;;4756993;30;20480;-58
2021/11/02 15:00:07;;;;;;;8.60;1.10;;;26.10;37.70;;;;;;4743999;29;20082;-58
2021/11/02 15:02:40;;;;;;;1.42;0.80;;;26.10;37.70;;;;;;4754719;29;20056;-58
2021/11/02 15:05:11;;;;;;;0.85;0.75;;;26.10;37.70;;;;;;4754637;29;20055;-60
2021/11/02 15:07:44;;;;;;;0.98;0.63;;;26.10;37.50;;;;;;4754033;29;20123;-59
2021/11/02 15:10:16;;;;;;;2.25;0.90;;;26.10;37.40;;;;;;4750968;30;20059;-59
2021/11/02 15:12:48;;;;;;;1.27;0.90;;;26.10;37.40;;;;;;4758621;29;20176;-60
2021/11/02 15:15:16;;;;;;;2.97;0.90;;;26.10;37.40;;;;;;4753714;29;20055;-59
2021/11/02 15:17:46;;;;;;;1.75;1.13;;;26.00;37.30;;;;;;4756761;29;20059;-59
2021/11/02 15:20:25;;;;;;;3.47;0.85;;;26.00;37.40;;;;;;4747980;30;20978;-58
2021/11/02 15:22:59;;;;;;;1.15;0.90;;;26.00;37.30;;;;;;4756138;30;20138;-59
2021/11/02 15:25:27;;;;;;;2.60;1.10;;;26.00;37.30;;;;;;4755121;30;20047;-59
2021/11/02 15:27:59;;;;;;;0.70;0.70;;;26.00;37.30;;;;;;4756159;29;21057;-59
2021/11/02 15:30:28;;;;;;;1.17;1.08;;;26.00;37.30;;;;;;4749064;29;20410;-59
2021/11/02 15:32:56;;;;;;;1.38;0.85;;;26.00;37.30;;;;;;4757544;29;20059;-59
2021/11/02 15:35:25;;;;;;;0.82;0.80;;;25.90;37.20;;;;;;4758882;29;20089;-58
2021/11/02 15:38:01;;;;;;;0.73;0.68;;;25.90;37.20;;;;;;4753945;29;20063;-57
2021/11/02 15:40:36;;;;;;;0.90;0.90;;;25.90;37.30;;;;;;4749782;29;20051;-57
2021/11/02 15:43:07;;;;;;;0.95;0.95;;;25.90;37.40;;;;;;4755815;29;20055;-58
2021/11/02 15:45:37;;;;;;;1.80;1.58;;;25.90;37.40;;;;;;4754781;30;20062;-57
2021/11/02 15:48:11;;;;;;;2.22;1.50;;;25.80;37.20;;;;;;4754978;29;20062;-58
2021/11/02 15:50:42;;;;;;;3.03;1.75;;;25.80;37.20;;;;;;4754662;30;20122;-57
2021/11/02 15:53:10;;;;;;;3.42;1.05;;;25.80;37.30;;;;;;4762041;29;20391;-57
2021/11/02 15:55:38;;;;;;;1.50;1.40;;;25.70;37.20;;;;;;4761028;29;20065;-57
2021/11/02 15:58:09;;;;;;;4.63;1.67;;;25.70;37.30;;;;;;4758266;29;20104;-57
2021/11/02 16:00:39;;;;;;;2.22;1.48;;;25.70;37.30;;;;;;4756776;29;20108;-57
2021/11/02 16:03:09;;;;;;;5.15;1.80;;;25.60;37.30;;;;;;4762417;30;20062;-57
2021/11/02 16:05:39;;;;;;;2.95;1.58;;;25.60;37.30;;;;;;4760485;29;20414;-58
2021/11/02 16:08:23;;;;;;;2.27;1.33;;;25.60;37.40;;;;;;4756539;29;20070;-57
2021/11/02 16:10:52;;;;;;;2.65;1.75;;;25.60;37.40;;;;;;4752707;30;20311;-57
2021/11/02 16:13:27;;;;;;;3.50;1.90;;;25.60;37.40;;;;;;4758002;30;21163;-57
2021/11/02 16:15:55;;;;;;;2.60;2.10;;;25.50;37.50;;;;;;4763436;30;20087;-58
2021/11/02 16:18:32;;;;;;;2.45;2.13;;;25.50;37.50;;;;;;4748665;29;20278;-57
2021/11/02 16:21:02;;;;;;;2.20;2.00;;;25.50;37.50;;;;;;4753951;29;20518;-58
2021/11/02 16:23:46;;;;;;;2.60;2.40;;;25.40;37.50;;;;;;4763573;29;20563;-58
2021/11/02 16:26:19;;;;;;;2.92;2.30;;;25.40;37.70;;;;;;4750240;30;20657;-58
2021/11/02 16:28:48;;;;;;;3.13;2.60;;;25.40;37.60;;;;;;4757413;29;20121;-58
2021/11/02 16:31:26;;;;;;;3.75;3.28;;;25.40;37.60;;;;;;4757394;30;20596;-58
2021/11/02 16:33:55;;;;;;;4.53;3.28;;;25.40;37.70;;;;;;4765263;29;20058;-57
2021/11/02 16:36:29;;;;;;;5.65;3.50;;;25.30;37.80;;;;;;4766227;30;20506;-58
2021/11/02 16:39:03;;;;;;;5.10;3.95;;;25.30;37.80;;;;;;4758698;29;20114;-57
2021/11/02 16:41:46;;;;;;;5.75;4.15;;;25.30;38.00;;;;;;4765615;29;20158;-58
2021/11/02 16:44:25;;;;;;;5.43;4.00;;;25.30;38.20;;;;;;4766407;29;20088;-57
2021/11/02 16:47:07;;;;;;;7.00;4.75;;;25.20;38.10;;;;;;4767191;29;20059;-58
2021/11/02 16:49:35;;;;;;;6.45;4.15;;;25.30;38.40;;;;;;4754337;29;20055;-58
2021/11/02 16:52:09;;;;;;;6.70;4.72;;;25.20;38.40;;;;;;4764778;29;20062;-58
2021/11/02 16:54:40;;;;;;;6.60;4.95;;;25.20;38.50;;;;;;4761235;30;20055;-58
2021/11/02 16:57:22;;;;;;;;;;;25.20;38.70;;;;;;4758269;30;20120;-58
2021/11/02 16:59:59;;;;;;;6.03;4.93;;;25.20;38.60;;;;;;4756796;29;20285;-57
2021/11/02 17:02:37;;;;;;;5.97;4.60;;;25.10;38.30;;;;;;4767002;29;20059;-59
2021/11/02 17:05:26;;;;;;;6.72;4.43;;;25.10;38.30;;;;;;4767071;29;20082;-58
2021/11/02 17:08:13;;;;;;;8.02;4.65;;;25.10;38.50;;;;;;4763751;29;20059;-58
2021/11/02 17:10:43;;;;;;;10.10;5.15;;;25.10;38.90;;;;;;4762886;29;20055;-59
2021/11/02 17:13:16;;;;;;;;;;;25.10;40.10;;;;;;4767108;29;20051;-58
2021/11/02 17:15:49;;;;;;;7.43;4.95;;;25.00;42.40;;;;;;4767155;29;19929;-58
2021/11/02 17:18:27;;;;;;;6.45;5.22;;;25.00;43.00;;;;;;4763956;29;20132;-58
2021/11/02 17:21:07;;;;;;;6.03;4.50;;;24.90;43.20;;;;;;4763758;30;20476;-58
2021/11/02 17:23:35;;;;;;;6.28;4.70;;;24.90;42.70;;;;;;4765663;29;20059;-58
2021/11/02 17:26:05;;;;;;;6.32;4.68;;;24.90;41.90;;;;;;4767030;29;20506;-58
2021/11/02 17:28:33;;;;;;;;;;;24.90;41.20;;;;;;4759228;29;20055;-58
2021/11/02 17:31:02;;;;;;;5.80;4.50;;;24.90;40.70;;;;;;4762601;30;19933;-59
2021/11/02 17:33:31;;;;;;;7.50;5.15;;;24.80;40.40;;;;;;4764768;29;20087;-59
2021/11/02 17:35:59;;;;;;;6.35;4.47;;;24.80;40.10;;;;;;4766155;30;20433;-58
2021/11/02 17:38:27;;;;;;;6.78;4.50;;;24.80;40.10;;;;;;4760900;29;20066;-59
2021/11/02 17:40:55;;;;;;;9.18;5.25;;;24.70;40.80;;;;;;4762829;30;20059;-59
2021/11/02 17:43:24;;;;;;;8.50;5.57;;;24.70;41.60;;;;;;4766389;29;20059;-58